sensor_id;sensor_type;location;lat;lon;timestamp;P1;durP1;ratioP1;P2;durP2;ratioP2
34695;SDS011;20918;51.138;17.370;2022-08-19T00:01:37;12.90;;;8.65;;
34695;SDS011;20918;51.138;17.370;2022-08-19T00:05:00;10.88;;;8.65;;
34695;SDS011;20918;51.138;17.370;2022-08-19T00:08:02;9.98;;;8.45;;
34695;SDS011;20918;51.138;17.370;2022-08-19T00:11:03;10.32;;;8.45;;
34695;SDS011;20918;51.138;17.370;2022-08-19T00:14:06;10.28;;;8.03;;
34695;SDS011;20918;51.138;17.370;2022-08-19T00:17:10;10.38;;;8.25;;
34695;SDS011;20918;51.138;17.370;2022-08-19T00:20:12;9.35;;;8.15;;
34695;SDS011;20918;51.138;17.370;2022-08-19T00:23:19;11.15;;;8.55;;
34695;SDS011;20918;51.138;17.370;2022-08-19T00:26:20;12.13;;;8.65;;
34695;SDS011;20918;51.138;17.370;2022-08-19T00:29:21;10.15;;;8.83;;
34695;SDS011;20918;51.138;17.370;2022-08-19T00:32:25;10.20;;;7.92;;
34695;SDS011;20918;51.138;17.370;2022-08-19T00:35:26;12.65;;;8.83;;
34695;SDS011;20918;51.138;17.370;2022-08-19T00:38:27;11.73;;;8.75;;
34695;SDS011;20918;51.138;17.370;2022-08-19T00:41:29;11.73;;;9.33;;
34695;SDS011;20918;51.138;17.370;2022-08-19T00:44:30;9.93;;;8.73;;
34695;SDS011;20918;51.138;17.370;2022-08-19T00:47:32;9.80;;;8.80;;
34695;SDS011;20918;51.138;17.370;2022-08-19T00:50:33;9.95;;;8.95;;
34695;SDS011;20918;51.138;17.370;2022-08-19T00:53:35;11.22;;;9.33;;
34695;SDS011;20918;51.138;17.370;2022-08-19T00:56:36;9.10;;;7.97;;
34695;SDS011;20918;51.138;17.370;2022-08-19T00:59:38;13.65;;;8.53;;
34695;SDS011;20918;51.138;17.370;2022-08-19T01:02:43;10.93;;;8.48;;
34695;SDS011;20918;51.138;17.370;2022-08-19T01:05:46;8.85;;;7.60;;
34695;SDS011;20918;51.138;17.370;2022-08-19T01:08:51;9.10;;;8.18;;
34695;SDS011;20918;51.138;17.370;2022-08-19T01:11:52;9.98;;;8.98;;
34695;SDS011;20918;51.138;17.370;2022-08-19T01:14:53;10.32;;;9.20;;
34695;SDS011;20918;51.138;17.370;2022-08-19T01:17:56;12.23;;;9.08;;
34695;SDS011;20918;51.138;17.370;2022-08-19T01:21:10;11.57;;;8.73;;
34695;SDS011;20918;51.138;17.370;2022-08-19T01:24:24;10.30;;;8.03;;
34695;SDS011;20918;51.138;17.370;2022-08-19T01:27:26;9.80;;;8.40;;
34695;SDS011;20918;51.138;17.370;2022-08-19T01:30:30;9.45;;;8.30;;
34695;SDS011;20918;51.138;17.370;2022-08-19T01:33:36;10.48;;;8.98;;
34695;SDS011;20918;51.138;17.370;2022-08-19T01:36:39;9.38;;;8.33;;
34695;SDS011;20918;51.138;17.370;2022-08-19T01:39:45;9.33;;;8.28;;
34695;SDS011;20918;51.138;17.370;2022-08-19T01:42:47;13.35;;;8.83;;
34695;SDS011;20918;51.138;17.370;2022-08-19T01:45:49;10.18;;;8.95;;
34695;SDS011;20918;51.138;17.370;2022-08-19T01:48:51;10.93;;;9.28;;
34695;SDS011;20918;51.138;17.370;2022-08-19T01:51:52;10.15;;;8.88;;
34695;SDS011;20918;51.138;17.370;2022-08-19T01:54:54;11.73;;;8.68;;
34695;SDS011;20918;51.138;17.370;2022-08-19T01:57:55;10.90;;;9.25;;
34695;SDS011;20918;51.138;17.370;2022-08-19T02:01:01;12.47;;;9.30;;
34695;SDS011;20918;51.138;17.370;2022-08-19T02:04:04;10.65;;;9.23;;
34695;SDS011;20918;51.138;17.370;2022-08-19T02:07:06;11.97;;;9.78;;
34695;SDS011;20918;51.138;17.370;2022-08-19T02:10:11;10.30;;;9.15;;
34695;SDS011;20918;51.138;17.370;2022-08-19T02:13:15;12.88;;;9.83;;
34695;SDS011;20918;51.138;17.370;2022-08-19T02:16:17;11.50;;;9.50;;
34695;SDS011;20918;51.138;17.370;2022-08-19T02:19:19;11.70;;;9.30;;
34695;SDS011;20918;51.138;17.370;2022-08-19T02:22:20;14.15;;;9.43;;
34695;SDS011;20918;51.138;17.370;2022-08-19T02:25:22;11.18;;;9.93;;
34695;SDS011;20918;51.138;17.370;2022-08-19T02:28:22;10.72;;;9.58;;
34695;SDS011;20918;51.138;17.370;2022-08-19T02:31:24;10.78;;;9.58;;
34695;SDS011;20918;51.138;17.370;2022-08-19T02:34:26;14.25;;;10.23;;
34695;SDS011;20918;51.138;17.370;2022-08-19T02:37:27;11.35;;;10.25;;
34695;SDS011;20918;51.138;17.370;2022-08-19T02:40:50;16.75;;;10.15;;
34695;SDS011;20918;51.138;17.370;2022-08-19T02:43:55;11.68;;;9.73;;
34695;SDS011;20918;51.138;17.370;2022-08-19T02:46:58;11.55;;;10.35;;
34695;SDS011;20918;51.138;17.370;2022-08-19T02:50:00;11.65;;;9.68;;
34695;SDS011;20918;51.138;17.370;2022-08-19T02:53:03;13.65;;;9.83;;
34695;SDS011;20918;51.138;17.370;2022-08-19T02:56:07;14.25;;;10.72;;
34695;SDS011;20918;51.138;17.370;2022-08-19T02:59:08;12.18;;;10.82;;
34695;SDS011;20918;51.138;17.370;2022-08-19T03:02:10;13.98;;;10.32;;
34695;SDS011;20918;51.138;17.370;2022-08-19T03:05:11;14.68;;;11.20;;
34695;SDS011;20918;51.138;17.370;2022-08-19T03:08:12;11.78;;;10.55;;
34695;SDS011;20918;51.138;17.370;2022-08-19T03:11:18;17.90;;;10.80;;
34695;SDS011;20918;51.138;17.370;2022-08-19T03:14:22;17.30;;;11.05;;
34695;SDS011;20918;51.138;17.370;2022-08-19T03:17:23;16.00;;;11.48;;
34695;SDS011;20918;51.138;17.370;2022-08-19T03:20:24;13.43;;;10.98;;
34695;SDS011;20918;51.138;17.370;2022-08-19T03:23:26;12.50;;;11.28;;
34695;SDS011;20918;51.138;17.370;2022-08-19T03:26:27;14.07;;;11.43;;
34695;SDS011;20918;51.138;17.370;2022-08-19T03:29:29;15.05;;;12.40;;
34695;SDS011;20918;51.138;17.370;2022-08-19T03:32:32;12.25;;;10.98;;
34695;SDS011;20918;51.138;17.370;2022-08-19T03:35:33;13.65;;;11.63;;
34695;SDS011;20918;51.138;17.370;2022-08-19T03:38:41;18.00;;;11.73;;
34695;SDS011;20918;51.138;17.370;2022-08-19T03:41:47;15.53;;;11.48;;
34695;SDS011;20918;51.138;17.370;2022-08-19T03:44:50;13.62;;;11.97;;
34695;SDS011;20918;51.138;17.370;2022-08-19T03:47:51;14.28;;;11.63;;
34695;SDS011;20918;51.138;17.370;2022-08-19T03:50:52;15.20;;;12.25;;
34695;SDS011;20918;51.138;17.370;2022-08-19T03:53:54;15.45;;;11.65;;
34695;SDS011;20918;51.138;17.370;2022-08-19T03:56:56;13.05;;;11.35;;
34695;SDS011;20918;51.138;17.370;2022-08-19T03:59:57;15.63;;;12.30;;
34695;SDS011;20918;51.138;17.370;2022-08-19T04:02:59;14.47;;;11.53;;
34695;SDS011;20918;51.138;17.370;2022-08-19T04:06:14;16.55;;;11.25;;
34695;SDS011;20918;51.138;17.370;2022-08-19T04:09:22;13.88;;;11.78;;
34695;SDS011;20918;51.138;17.370;2022-08-19T04:12:24;19.30;;;12.65;;
34695;SDS011;20918;51.138;17.370;2022-08-19T04:15:25;18.87;;;12.68;;
34695;SDS011;20918;51.138;17.370;2022-08-19T04:18:26;17.50;;;12.13;;
34695;SDS011;20918;51.138;17.370;2022-08-19T04:21:29;16.80;;;12.05;;
34695;SDS011;20918;51.138;17.370;2022-08-19T04:24:30;14.30;;;11.95;;
34695;SDS011;20918;51.138;17.370;2022-08-19T04:27:31;17.90;;;11.97;;
34695;SDS011;20918;51.138;17.370;2022-08-19T04:30:42;13.38;;;12.07;;
34695;SDS011;20918;51.138;17.370;2022-08-19T04:33:43;12.20;;;11.00;;
34695;SDS011;20918;51.138;17.370;2022-08-19T04:36:44;12.10;;;10.68;;
34695;SDS011;20918;51.138;17.370;2022-08-19T04:39:45;13.13;;;10.38;;
34695;SDS011;20918;51.138;17.370;2022-08-19T04:43:05;12.30;;;10.50;;
34695;SDS011;20918;51.138;17.370;2022-08-19T04:46:09;14.15;;;11.97;;
34695;SDS011;20918;51.138;17.370;2022-08-19T04:49:12;14.85;;;12.25;;
34695;SDS011;20918;51.138;17.370;2022-08-19T04:52:14;14.35;;;12.05;;
34695;SDS011;20918;51.138;17.370;2022-08-19T04:55:15;15.63;;;12.45;;
34695;SDS011;20918;51.138;17.370;2022-08-19T04:58:18;14.90;;;11.68;;
34695;SDS011;20918;51.138;17.370;2022-08-19T05:01:21;16.15;;;13.00;;
34695;SDS011;20918;51.138;17.370;2022-08-19T05:04:26;15.78;;;12.45;;
34695;SDS011;20918;51.138;17.370;2022-08-19T05:07:29;14.87;;;12.10;;
34695;SDS011;20918;51.138;17.370;2022-08-19T05:10:31;15.70;;;11.97;;
34695;SDS011;20918;51.138;17.370;2022-08-19T05:13:32;14.93;;;11.05;;
34695;SDS011;20918;51.138;17.370;2022-08-19T05:16:33;16.62;;;12.37;;
34695;SDS011;20918;51.138;17.370;2022-08-19T05:19:34;13.72;;;11.85;;
34695;SDS011;20918;51.138;17.370;2022-08-19T05:22:53;19.60;;;12.43;;
34695;SDS011;20918;51.138;17.370;2022-08-19T05:25:54;14.95;;;12.33;;
34695;SDS011;20918;51.138;17.370;2022-08-19T05:28:55;14.25;;;11.53;;
34695;SDS011;20918;51.138;17.370;2022-08-19T05:31:56;14.38;;;11.30;;
34695;SDS011;20918;51.138;17.370;2022-08-19T05:34:59;16.32;;;12.35;;
34695;SDS011;20918;51.138;17.370;2022-08-19T05:38:01;16.07;;;11.73;;
34695;SDS011;20918;51.138;17.370;2022-08-19T05:41:12;18.85;;;12.10;;
34695;SDS011;20918;51.138;17.370;2022-08-19T05:44:11;16.67;;;12.75;;
34695;SDS011;20918;51.138;17.370;2022-08-19T05:47:12;15.08;;;12.63;;
34695;SDS011;20918;51.138;17.370;2022-08-19T05:50:15;18.37;;;12.23;;
34695;SDS011;20918;51.138;17.370;2022-08-19T05:53:17;18.95;;;12.53;;
34695;SDS011;20918;51.138;17.370;2022-08-19T05:56:20;15.43;;;11.53;;
34695;SDS011;20918;51.138;17.370;2022-08-19T05:59:21;14.90;;;12.03;;
34695;SDS011;20918;51.138;17.370;2022-08-19T06:02:22;17.05;;;12.20;;
34695;SDS011;20918;51.138;17.370;2022-08-19T06:05:23;16.60;;;11.25;;
34695;SDS011;20918;51.138;17.370;2022-08-19T06:08:24;16.10;;;11.78;;
34695;SDS011;20918;51.138;17.370;2022-08-19T06:14:40;16.40;;;11.70;;
34695;SDS011;20918;51.138;17.370;2022-08-19T06:17:41;20.25;;;11.55;;
34695;SDS011;20918;51.138;17.370;2022-08-19T06:20:44;16.48;;;12.00;;
34695;SDS011;20918;51.138;17.370;2022-08-19T06:23:46;15.23;;;12.20;;
34695;SDS011;20918;51.138;17.370;2022-08-19T06:26:48;14.78;;;11.20;;
34695;SDS011;20918;51.138;17.370;2022-08-19T06:29:51;13.32;;;11.68;;
34695;SDS011;20918;51.138;17.370;2022-08-19T06:32:52;13.62;;;11.08;;
34695;SDS011;20918;51.138;17.370;2022-08-19T06:35:54;13.75;;;12.03;;
34695;SDS011;20918;51.138;17.370;2022-08-19T06:38:55;14.05;;;11.28;;
34695;SDS011;20918;51.138;17.370;2022-08-19T06:42:00;16.70;;;11.28;;
34695;SDS011;20918;51.138;17.370;2022-08-19T06:45:05;13.78;;;10.80;;
34695;SDS011;20918;51.138;17.370;2022-08-19T06:48:08;15.75;;;10.75;;
34695;SDS011;20918;51.138;17.370;2022-08-19T06:51:09;15.10;;;11.00;;
34695;SDS011;20918;51.138;17.370;2022-08-19T06:54:11;13.08;;;10.40;;
34695;SDS011;20918;51.138;17.370;2022-08-19T06:57:12;14.15;;;11.15;;
34695;SDS011;20918;51.138;17.370;2022-08-19T07:00:15;16.00;;;11.00;;
34695;SDS011;20918;51.138;17.370;2022-08-19T07:03:16;16.60;;;10.35;;
34695;SDS011;20918;51.138;17.370;2022-08-19T07:06:18;16.05;;;11.22;;
34695;SDS011;20918;51.138;17.370;2022-08-19T07:09:20;17.62;;;10.15;;
34695;SDS011;20918;51.138;17.370;2022-08-19T07:12:22;18.60;;;11.50;;
34695;SDS011;20918;51.138;17.370;2022-08-19T07:15:23;13.65;;;10.63;;
34695;SDS011;20918;51.138;17.370;2022-08-19T07:18:24;15.20;;;9.65;;
34695;SDS011;20918;51.138;17.370;2022-08-19T07:21:26;15.43;;;10.60;;
34695;SDS011;20918;51.138;17.370;2022-08-19T07:24:29;17.90;;;9.80;;
34695;SDS011;20918;51.138;17.370;2022-08-19T07:27:33;17.82;;;9.75;;
34695;SDS011;20918;51.138;17.370;2022-08-19T07:30:35;14.03;;;9.18;;
34695;SDS011;20918;51.138;17.370;2022-08-19T07:33:38;16.82;;;10.18;;
34695;SDS011;20918;51.138;17.370;2022-08-19T07:36:43;15.72;;;8.90;;
34695;SDS011;20918;51.138;17.370;2022-08-19T07:39:45;14.83;;;8.58;;
34695;SDS011;20918;51.138;17.370;2022-08-19T07:42:49;13.90;;;7.83;;
34695;SDS011;20918;51.138;17.370;2022-08-19T07:45:51;15.08;;;8.35;;
34695;SDS011;20918;51.138;17.370;2022-08-19T07:48:57;12.10;;;7.78;;
34695;SDS011;20918;51.138;17.370;2022-08-19T07:52:03;14.23;;;8.15;;
34695;SDS011;20918;51.138;17.370;2022-08-19T07:55:08;11.20;;;7.62;;
34695;SDS011;20918;51.138;17.370;2022-08-19T07:58:15;12.35;;;7.40;;
34695;SDS011;20918;51.138;17.370;2022-08-19T08:01:20;19.35;;;7.53;;
34695;SDS011;20918;51.138;17.370;2022-08-19T08:04:25;15.85;;;7.72;;
34695;SDS011;20918;51.138;17.370;2022-08-19T08:07:46;12.93;;;7.20;;
34695;SDS011;20918;51.138;17.370;2022-08-19T08:14:07;10.03;;;6.72;;
34695;SDS011;20918;51.138;17.370;2022-08-19T08:17:10;14.55;;;7.35;;
34695;SDS011;20918;51.138;17.370;2022-08-19T08:20:12;14.40;;;7.75;;
34695;SDS011;20918;51.138;17.370;2022-08-19T08:23:14;10.78;;;6.28;;
34695;SDS011;20918;51.138;17.370;2022-08-19T08:26:28;12.30;;;6.78;;
34695;SDS011;20918;51.138;17.370;2022-08-19T08:29:30;13.10;;;6.53;;
34695;SDS011;20918;51.138;17.370;2022-08-19T08:32:31;14.78;;;7.83;;
34695;SDS011;20918;51.138;17.370;2022-08-19T08:35:32;14.20;;;7.53;;
34695;SDS011;20918;51.138;17.370;2022-08-19T08:38:34;16.23;;;6.72;;
34695;SDS011;20918;51.138;17.370;2022-08-19T08:45:17;16.87;;;6.83;;
34695;SDS011;20918;51.138;17.370;2022-08-19T08:48:24;9.93;;;6.55;;
34695;SDS011;20918;51.138;17.370;2022-08-19T08:51:37;12.20;;;6.12;;
34695;SDS011;20918;51.138;17.370;2022-08-19T08:54:46;13.60;;;6.15;;
34695;SDS011;20918;51.138;17.370;2022-08-19T09:01:02;9.90;;;6.37;;
34695;SDS011;20918;51.138;17.370;2022-08-19T09:04:07;13.32;;;6.35;;
34695;SDS011;20918;51.138;17.370;2022-08-19T09:10:49;43.52;;;8.15;;
34695;SDS011;20918;51.138;17.370;2022-08-19T09:14:10;13.85;;;6.50;;
34695;SDS011;20918;51.138;17.370;2022-08-19T09:17:22;12.13;;;6.12;;
34695;SDS011;20918;51.138;17.370;2022-08-19T09:20:34;10.38;;;6.35;;
34695;SDS011;20918;51.138;17.370;2022-08-19T09:23:36;8.73;;;5.67;;
34695;SDS011;20918;51.138;17.370;2022-08-19T09:26:38;12.60;;;6.80;;
34695;SDS011;20918;51.138;17.370;2022-08-19T09:29:39;11.85;;;5.75;;
34695;SDS011;20918;51.138;17.370;2022-08-19T09:32:40;11.03;;;5.97;;
34695;SDS011;20918;51.138;17.370;2022-08-19T09:35:42;11.80;;;5.65;;
34695;SDS011;20918;51.138;17.370;2022-08-19T09:38:44;14.55;;;6.58;;
34695;SDS011;20918;51.138;17.370;2022-08-19T09:41:46;11.03;;;5.40;;
34695;SDS011;20918;51.138;17.370;2022-08-19T09:44:47;12.65;;;5.12;;
34695;SDS011;20918;51.138;17.370;2022-08-19T09:47:52;10.63;;;5.67;;
34695;SDS011;20918;51.138;17.370;2022-08-19T09:50:53;10.38;;;5.40;;
34695;SDS011;20918;51.138;17.370;2022-08-19T09:53:54;15.58;;;5.25;;
34695;SDS011;20918;51.138;17.370;2022-08-19T09:57:01;10.58;;;5.60;;
34695;SDS011;20918;51.138;17.370;2022-08-19T10:00:04;7.60;;;4.65;;
34695;SDS011;20918;51.138;17.370;2022-08-19T10:03:08;12.85;;;4.87;;
34695;SDS011;20918;51.138;17.370;2022-08-19T10:06:11;12.65;;;5.12;;
34695;SDS011;20918;51.138;17.370;2022-08-19T10:09:13;6.45;;;4.60;;
34695;SDS011;20918;51.138;17.370;2022-08-19T10:12:16;8.53;;;4.25;;
34695;SDS011;20918;51.138;17.370;2022-08-19T10:15:17;9.80;;;4.35;;
34695;SDS011;20918;51.138;17.370;2022-08-19T10:18:21;6.55;;;4.08;;
34695;SDS011;20918;51.138;17.370;2022-08-19T10:21:25;8.35;;;4.30;;
34695;SDS011;20918;51.138;17.370;2022-08-19T10:24:29;8.05;;;4.20;;
34695;SDS011;20918;51.138;17.370;2022-08-19T10:27:31;8.33;;;4.25;;
34695;SDS011;20918;51.138;17.370;2022-08-19T10:30:33;7.65;;;4.40;;
34695;SDS011;20918;51.138;17.370;2022-08-19T10:33:36;8.80;;;4.62;;
34695;SDS011;20918;51.138;17.370;2022-08-19T10:36:38;12.53;;;4.50;;
34695;SDS011;20918;51.138;17.370;2022-08-19T10:39:39;8.93;;;4.20;;
34695;SDS011;20918;51.138;17.370;2022-08-19T10:42:40;12.30;;;4.55;;
34695;SDS011;20918;51.138;17.370;2022-08-19T10:45:41;15.95;;;4.97;;
34695;SDS011;20918;51.138;17.370;2022-08-19T10:48:42;9.85;;;4.00;;
34695;SDS011;20918;51.138;17.370;2022-08-19T10:51:44;7.95;;;4.17;;
34695;SDS011;20918;51.138;17.370;2022-08-19T10:55:04;10.23;;;4.40;;
34695;SDS011;20918;51.138;17.370;2022-08-19T10:58:26;8.55;;;4.42;;
34695;SDS011;20918;51.138;17.370;2022-08-19T11:01:27;16.27;;;4.55;;
34695;SDS011;20918;51.138;17.370;2022-08-19T11:04:31;12.35;;;4.15;;
34695;SDS011;20918;51.138;17.370;2022-08-19T11:07:33;11.08;;;3.98;;
34695;SDS011;20918;51.138;17.370;2022-08-19T11:10:34;8.05;;;4.22;;
34695;SDS011;20918;51.138;17.370;2022-08-19T11:13:37;10.75;;;4.35;;
34695;SDS011;20918;51.138;17.370;2022-08-19T11:16:41;9.63;;;4.30;;
34695;SDS011;20918;51.138;17.370;2022-08-19T11:19:43;10.72;;;3.77;;
34695;SDS011;20918;51.138;17.370;2022-08-19T11:22:44;9.50;;;4.05;;
34695;SDS011;20918;51.138;17.370;2022-08-19T11:25:45;4.30;;;3.60;;
34695;SDS011;20918;51.138;17.370;2022-08-19T11:28:47;9.45;;;3.27;;
34695;SDS011;20918;51.138;17.370;2022-08-19T11:31:51;5.12;;;3.60;;
34695;SDS011;20918;51.138;17.370;2022-08-19T11:34:53;7.78;;;3.60;;
34695;SDS011;20918;51.138;17.370;2022-08-19T11:37:55;8.38;;;3.25;;
34695;SDS011;20918;51.138;17.370;2022-08-19T11:40:59;8.65;;;3.77;;
34695;SDS011;20918;51.138;17.370;2022-08-19T11:44:03;7.37;;;3.40;;
34695;SDS011;20918;51.138;17.370;2022-08-19T11:47:04;10.38;;;3.67;;
34695;SDS011;20918;51.138;17.370;2022-08-19T11:50:07;7.30;;;3.67;;
34695;SDS011;20918;51.138;17.370;2022-08-19T11:53:10;11.45;;;4.12;;
34695;SDS011;20918;51.138;17.370;2022-08-19T11:56:11;7.12;;;3.50;;
34695;SDS011;20918;51.138;17.370;2022-08-19T11:59:13;8.15;;;3.87;;
34695;SDS011;20918;51.138;17.370;2022-08-19T12:02:16;7.83;;;3.77;;
34695;SDS011;20918;51.138;17.370;2022-08-19T12:05:17;8.68;;;4.12;;
34695;SDS011;20918;51.138;17.370;2022-08-19T12:08:18;8.53;;;4.30;;
34695;SDS011;20918;51.138;17.370;2022-08-19T12:11:21;6.37;;;3.60;;
34695;SDS011;20918;51.138;17.370;2022-08-19T12:14:23;5.42;;;3.75;;
34695;SDS011;20918;51.138;17.370;2022-08-19T12:17:25;8.03;;;4.47;;
34695;SDS011;20918;51.138;17.370;2022-08-19T12:20:27;6.53;;;3.75;;
34695;SDS011;20918;51.138;17.370;2022-08-19T12:23:28;15.00;;;4.17;;
34695;SDS011;20918;51.138;17.370;2022-08-19T12:26:30;10.08;;;3.75;;
34695;SDS011;20918;51.138;17.370;2022-08-19T12:29:31;10.15;;;3.60;;
34695;SDS011;20918;51.138;17.370;2022-08-19T12:32:34;8.95;;;4.03;;
34695;SDS011;20918;51.138;17.370;2022-08-19T12:35:39;16.55;;;4.05;;
34695;SDS011;20918;51.138;17.370;2022-08-19T12:38:46;10.75;;;3.67;;
34695;SDS011;20918;51.138;17.370;2022-08-19T12:41:48;7.72;;;3.70;;
34695;SDS011;20918;51.138;17.370;2022-08-19T12:44:49;8.30;;;3.83;;
34695;SDS011;20918;51.138;17.370;2022-08-19T12:47:52;7.40;;;3.30;;
34695;SDS011;20918;51.138;17.370;2022-08-19T12:50:53;10.82;;;3.10;;
34695;SDS011;20918;51.138;17.370;2022-08-19T12:53:54;6.60;;;3.08;;
34695;SDS011;20918;51.138;17.370;2022-08-19T12:56:56;9.90;;;3.35;;
34695;SDS011;20918;51.138;17.370;2022-08-19T13:00:00;5.37;;;3.95;;
34695;SDS011;20918;51.138;17.370;2022-08-19T13:03:12;10.30;;;3.55;;
34695;SDS011;20918;51.138;17.370;2022-08-19T13:06:13;9.95;;;3.83;;
34695;SDS011;20918;51.138;17.370;2022-08-19T13:09:15;11.38;;;3.60;;
34695;SDS011;20918;51.138;17.370;2022-08-19T13:12:16;8.40;;;4.05;;
34695;SDS011;20918;51.138;17.370;2022-08-19T13:15:20;12.03;;;3.37;;
34695;SDS011;20918;51.138;17.370;2022-08-19T13:18:23;7.58;;;3.35;;
34695;SDS011;20918;51.138;17.370;2022-08-19T13:21:26;9.10;;;3.50;;
34695;SDS011;20918;51.138;17.370;2022-08-19T13:24:29;9.88;;;3.10;;
34695;SDS011;20918;51.138;17.370;2022-08-19T13:27:31;6.83;;;3.25;;
34695;SDS011;20918;51.138;17.370;2022-08-19T13:30:33;27.70;;;4.20;;
34695;SDS011;20918;51.138;17.370;2022-08-19T13:33:53;8.25;;;3.37;;
34695;SDS011;20918;51.138;17.370;2022-08-19T13:36:54;9.53;;;3.47;;
34695;SDS011;20918;51.138;17.370;2022-08-19T13:39:56;4.47;;;2.95;;
34695;SDS011;20918;51.138;17.370;2022-08-19T13:42:59;8.95;;;3.40;;
34695;SDS011;20918;51.138;17.370;2022-08-19T13:46:07;8.40;;;3.65;;
34695;SDS011;20918;51.138;17.370;2022-08-19T13:49:08;5.85;;;3.05;;
34695;SDS011;20918;51.138;17.370;2022-08-19T13:52:09;6.42;;;2.90;;
34695;SDS011;20918;51.138;17.370;2022-08-19T13:55:11;6.50;;;3.17;;
34695;SDS011;20918;51.138;17.370;2022-08-19T13:58:13;7.58;;;3.58;;
34695;SDS011;20918;51.138;17.370;2022-08-19T14:01:20;6.35;;;2.98;;
34695;SDS011;20918;51.138;17.370;2022-08-19T14:04:22;9.10;;;3.30;;
34695;SDS011;20918;51.138;17.370;2022-08-19T14:07:24;10.60;;;3.52;;
34695;SDS011;20918;51.138;17.370;2022-08-19T14:10:25;7.55;;;2.95;;
34695;SDS011;20918;51.138;17.370;2022-08-19T14:13:28;12.33;;;3.42;;
34695;SDS011;20918;51.138;17.370;2022-08-19T14:16:29;10.08;;;3.40;;
34695;SDS011;20918;51.138;17.370;2022-08-19T14:19:30;10.43;;;3.42;;
34695;SDS011;20918;51.138;17.370;2022-08-19T14:22:32;5.47;;;3.20;;
34695;SDS011;20918;51.138;17.370;2022-08-19T14:25:34;8.43;;;3.27;;
34695;SDS011;20918;51.138;17.370;2022-08-19T14:28:36;7.80;;;3.27;;
34695;SDS011;20918;51.138;17.370;2022-08-19T14:31:39;7.47;;;3.20;;
34695;SDS011;20918;51.138;17.370;2022-08-19T14:34:41;7.62;;;3.20;;
34695;SDS011;20918;51.138;17.370;2022-08-19T14:37:45;13.55;;;3.50;;
34695;SDS011;20918;51.138;17.370;2022-08-19T14:40:46;12.68;;;3.80;;
34695;SDS011;20918;51.138;17.370;2022-08-19T14:43:50;17.57;;;3.83;;
34695;SDS011;20918;51.138;17.370;2022-08-19T14:46:52;10.65;;;3.55;;
34695;SDS011;20918;51.138;17.370;2022-08-19T14:49:53;14.80;;;3.83;;
34695;SDS011;20918;51.138;17.370;2022-08-19T14:53:04;16.77;;;3.65;;
34695;SDS011;20918;51.138;17.370;2022-08-19T14:56:12;19.40;;;3.95;;
34695;SDS011;20918;51.138;17.370;2022-08-19T14:59:16;15.80;;;3.72;;
34695;SDS011;20918;51.138;17.370;2022-08-19T15:02:18;20.60;;;3.92;;
34695;SDS011;20918;51.138;17.370;2022-08-19T15:05:20;13.55;;;3.35;;
34695;SDS011;20918;51.138;17.370;2022-08-19T15:08:22;9.83;;;2.75;;
34695;SDS011;20918;51.138;17.370;2022-08-19T15:11:25;16.00;;;3.67;;
34695;SDS011;20918;51.138;17.370;2022-08-19T15:14:28;9.25;;;3.60;;
34695;SDS011;20918;51.138;17.370;2022-08-19T15:17:31;10.45;;;3.20;;
34695;SDS011;20918;51.138;17.370;2022-08-19T15:20:32;9.75;;;3.37;;
34695;SDS011;20918;51.138;17.370;2022-08-19T15:23:33;9.80;;;3.45;;
34695;SDS011;20918;51.138;17.370;2022-08-19T15:26:36;9.85;;;3.37;;
34695;SDS011;20918;51.138;17.370;2022-08-19T15:29:37;11.38;;;3.50;;
34695;SDS011;20918;51.138;17.370;2022-08-19T15:32:38;12.28;;;3.20;;
34695;SDS011;20918;51.138;17.370;2022-08-19T15:35:40;10.68;;;3.37;;
34695;SDS011;20918;51.138;17.370;2022-08-19T15:53:09;50.85;;;5.40;;
34695;SDS011;20918;51.138;17.370;2022-08-19T15:56:11;13.15;;;3.92;;
34695;SDS011;20918;51.138;17.370;2022-08-19T15:59:12;10.95;;;3.98;;
34695;SDS011;20918;51.138;17.370;2022-08-19T16:05:52;8.70;;;3.77;;
34695;SDS011;20918;51.138;17.370;2022-08-19T16:09:13;10.35;;;4.00;;
34695;SDS011;20918;51.138;17.370;2022-08-19T16:12:16;10.28;;;4.35;;
34695;SDS011;20918;51.138;17.370;2022-08-19T16:15:18;9.98;;;4.42;;
34695;SDS011;20918;51.138;17.370;2022-08-19T16:18:20;14.58;;;8.20;;
34695;SDS011;20918;51.138;17.370;2022-08-19T16:21:22;18.67;;;10.63;;
34695;SDS011;20918;51.138;17.370;2022-08-19T16:24:27;15.70;;;9.55;;
34695;SDS011;20918;51.138;17.370;2022-08-19T16:27:29;17.50;;;10.08;;
34695;SDS011;20918;51.138;17.370;2022-08-19T16:30:30;13.25;;;9.30;;
34695;SDS011;20918;51.138;17.370;2022-08-19T16:33:31;19.07;;;9.30;;
34695;SDS011;20918;51.138;17.370;2022-08-19T16:36:33;17.75;;;10.10;;
34695;SDS011;20918;51.138;17.370;2022-08-19T16:39:35;11.88;;;7.55;;
34695;SDS011;20918;51.138;17.370;2022-08-19T16:42:37;15.65;;;7.70;;
34695;SDS011;20918;51.138;17.370;2022-08-19T16:45:39;10.23;;;8.05;;
34695;SDS011;20918;51.138;17.370;2022-08-19T16:48:40;13.30;;;6.75;;
34695;SDS011;20918;51.138;17.370;2022-08-19T16:51:43;10.78;;;7.20;;
34695;SDS011;20918;51.138;17.370;2022-08-19T16:54:45;11.18;;;6.97;;
34695;SDS011;20918;51.138;17.370;2022-08-19T16:57:48;15.05;;;8.25;;
34695;SDS011;20918;51.138;17.370;2022-08-19T17:00:50;13.40;;;8.03;;
34695;SDS011;20918;51.138;17.370;2022-08-19T17:03:53;14.98;;;8.73;;
34695;SDS011;20918;51.138;17.370;2022-08-19T17:06:55;39.80;;;9.28;;
34695;SDS011;20918;51.138;17.370;2022-08-19T17:09:57;29.30;;;9.48;;
34695;SDS011;20918;51.138;17.370;2022-08-19T17:12:58;16.90;;;9.10;;
34695;SDS011;20918;51.138;17.370;2022-08-19T17:15:59;16.90;;;8.50;;
34695;SDS011;20918;51.138;17.370;2022-08-19T17:19:03;15.03;;;9.20;;
34695;SDS011;20918;51.138;17.370;2022-08-19T17:22:06;15.28;;;9.30;;
34695;SDS011;20918;51.138;17.370;2022-08-19T17:25:09;13.43;;;8.88;;
34695;SDS011;20918;51.138;17.370;2022-08-19T17:28:13;15.38;;;9.75;;
34695;SDS011;20918;51.138;17.370;2022-08-19T17:31:19;16.05;;;9.15;;
34695;SDS011;20918;51.138;17.370;2022-08-19T17:34:23;13.00;;;8.68;;
34695;SDS011;20918;51.138;17.370;2022-08-19T17:37:26;20.12;;;9.20;;
34695;SDS011;20918;51.138;17.370;2022-08-19T17:40:27;19.37;;;9.58;;
34695;SDS011;20918;51.138;17.370;2022-08-19T17:43:30;13.68;;;9.15;;
34695;SDS011;20918;51.138;17.370;2022-08-19T17:46:36;14.55;;;9.80;;
34695;SDS011;20918;51.138;17.370;2022-08-19T17:49:38;13.38;;;8.88;;
34695;SDS011;20918;51.138;17.370;2022-08-19T17:52:41;18.35;;;10.60;;
34695;SDS011;20918;51.138;17.370;2022-08-19T17:55:43;17.85;;;9.70;;
34695;SDS011;20918;51.138;17.370;2022-08-19T17:58:45;19.52;;;10.68;;
34695;SDS011;20918;51.138;17.370;2022-08-19T18:01:50;41.95;;;10.55;;
34695;SDS011;20918;51.138;17.370;2022-08-19T18:04:52;21.60;;;10.35;;
34695;SDS011;20918;51.138;17.370;2022-08-19T18:07:57;18.42;;;9.45;;
34695;SDS011;20918;51.138;17.370;2022-08-19T18:11:02;17.52;;;10.00;;
34695;SDS011;20918;51.138;17.370;2022-08-19T18:14:05;17.80;;;9.73;;
34695;SDS011;20918;51.138;17.370;2022-08-19T18:17:08;16.12;;;10.55;;
34695;SDS011;20918;51.138;17.370;2022-08-19T18:20:14;17.45;;;11.30;;
34695;SDS011;20918;51.138;17.370;2022-08-19T18:23:17;16.15;;;9.58;;
34695;SDS011;20918;51.138;17.370;2022-08-19T18:26:18;12.82;;;8.25;;